Spoiler — WDJ6427 — position and weather

sailwx.info

Track history (hours):
 
Tides and Currents Weather Stations Pressure Air Temp Water Temp Dewpoint Dewpoint Depression Visibility Wind Speed Wind Dir Waves Ship Positions

Spoiler

Owner: MT Vessel 1 LLC, LEAGUE CITY, TX. More information available from US FCC via Universal Licensing System and Coast Guard Vessel Documentation Center.

Last reported at 2017-Oct-22 00:11 UTC. Time now 2017-Nov-17 23:19 UTC.
Position N 29°41' W 094°58'.
Warning: this ship's position is 26 days out of date.

Length 8 m; draft 2 m.

Type: Tug. MMSI: 367797660.

Date/timePositionNaut miles runAvg speedWind from/ knotsBaromVisibWave heightAir tempDewpointWater temp
2017-Oct-22 00:11N 29°41' W 094°58'1 4.0
2017-Oct-21 23:59N 29°41' W 094°59'8 3.6
2017-Oct-21 21:44N 29°44' W 095°08'3 5.1
2017-Oct-21 21:10N 29°45' W 095°11'2 5.2
2017-Oct-21 20:44N 29°43' W 095°13'2 4.8
2017-Oct-21 20:22N 29°43' W 095°15'2 3.3
2017-Oct-21 19:51N 29°44' W 095°17'1 2.5
2017-Oct-21 19:28N 29°45' W 095°18'1 2.1
2017-Oct-21 19:00N 29°45' W 095°19'0 0.0
2017-Oct-20 05:47N 29°45' W 095°19'1 3.0
2017-Oct-20 05:28N 29°45' W 095°18'1 2.9
2017-Oct-20 04:59N 29°44' W 095°17'1 2.9
2017-Oct-20 04:29N 29°44' W 095°15'5 4.1
2017-Oct-20 03:12N 29°44' W 095°09'7 3.7
2017-Oct-20 01:15N 29°42' W 095°01'1 5.1
2017-Oct-20 00:58N 29°42' W 094°60'11 0.4
2017-Oct-18 20:11N 29°31' W 094°55'1 6.2
2017-Oct-18 19:59N 29°33' W 094°56'8 6.8
2017-Oct-18 18:49N 29°40' W 094°59'1 0.1
2017-Oct-17 22:44N 29°41' W 094°58'1 3.2
2017-Oct-17 22:30N 29°41' W 094°59'3 5.1
2017-Oct-17 21:59N 29°38' W 094°58'2 3.4
2017-Oct-17 21:29N 29°37' W 094°59'2 4.1
2017-Oct-17 21:00N 29°37' W 095°01'0 0.0
2017-Oct-16 00:16N 29°37' W 095°01'0 0.0
2017-Oct-16 00:00N 29°37' W 095°01'0 0.2
2017-Oct-15 23:30N 29°37' W 095°01'5 3.4
2017-Oct-15 22:09N 29°41' W 094°59'  
Track history (hours):
 
Tides and Currents Weather Stations Pressure Air Temp Water Temp Dewpoint Dewpoint Depression Visibility Wind Speed Wind Dir Waves Ship Positions

Spoiler

Owner: MT Vessel 1 LLC, LEAGUE CITY, TX. More information available from US FCC via Universal Licensing System and Coast Guard Vessel Documentation Center.

Last reported at 2017-Oct-22 00:11 UTC. Time now 2017-Nov-17 23:19 UTC.
Position N 29°41' W 094°58'.
Warning: this ship's position is 26 days out of date.

Length 8 m; draft 2 m.

Type: Tug. MMSI: 367797660.

Date/timePositionNaut miles runAvg speedWind from/ knotsBaromVisibWave heightAir tempDewpointWater temp
2017-Oct-22 00:11N 29°41' W 094°58'1 4.0
2017-Oct-21 23:59N 29°41' W 094°59'8 3.6
2017-Oct-21 21:44N 29°44' W 095°08'3 5.1
2017-Oct-21 21:10N 29°45' W 095°11'2 5.2
2017-Oct-21 20:44N 29°43' W 095°13'2 4.8
2017-Oct-21 20:22N 29°43' W 095°15'2 3.3
2017-Oct-21 19:51N 29°44' W 095°17'1 2.5
2017-Oct-21 19:28N 29°45' W 095°18'1 2.1
2017-Oct-21 19:00N 29°45' W 095°19'0 0.0
2017-Oct-20 05:47N 29°45' W 095°19'1 3.0
2017-Oct-20 05:28N 29°45' W 095°18'1 2.9
2017-Oct-20 04:59N 29°44' W 095°17'1 2.9
2017-Oct-20 04:29N 29°44' W 095°15'5 4.1
2017-Oct-20 03:12N 29°44' W 095°09'7 3.7
2017-Oct-20 01:15N 29°42' W 095°01'1 5.1
2017-Oct-20 00:58N 29°42' W 094°60'11 0.4
2017-Oct-18 20:11N 29°31' W 094°55'1 6.2
2017-Oct-18 19:59N 29°33' W 094°56'8 6.8
2017-Oct-18 18:49N 29°40' W 094°59'1 0.1
2017-Oct-17 22:44N 29°41' W 094°58'1 3.2
2017-Oct-17 22:30N 29°41' W 094°59'3 5.1
2017-Oct-17 21:59N 29°38' W 094°58'2 3.4
2017-Oct-17 21:29N 29°37' W 094°59'2 4.1
2017-Oct-17 21:00N 29°37' W 095°01'0 0.0
2017-Oct-16 00:16N 29°37' W 095°01'0 0.0
2017-Oct-16 00:00N 29°37' W 095°01'0 0.2
2017-Oct-15 23:30N 29°37' W 095°01'5 3.4
2017-Oct-15 22:09N 29°41' W 094°59'  

Dump ship's entire track history